sensor_id;sensor_type;location;lat;lon;timestamp;temperature;humidity
24772;DHT22;12870;52.274;9.754;2024-03-07T00:02:10;3.50;99.90
24772;DHT22;12870;52.274;9.754;2024-03-07T00:04:36;3.50;99.90
24772;DHT22;12870;52.274;9.754;2024-03-07T00:07:03;3.40;99.90
24772;DHT22;12870;52.274;9.754;2024-03-07T00:09:33;3.40;99.90
24772;DHT22;12870;52.274;9.754;2024-03-07T00:12:00;3.40;99.90
24772;DHT22;12870;52.274;9.754;2024-03-07T00:14:25;3.40;99.90
24772;DHT22;12870;52.274;9.754;2024-03-07T00:16:54;3.40;99.90
24772;DHT22;12870;52.274;9.754;2024-03-07T00:19:19;3.30;99.90
24772;DHT22;12870;52.274;9.754;2024-03-07T00:21:45;3.30;99.90
24772;DHT22;12870;52.274;9.754;2024-03-07T00:24:10;3.20;99.90
24772;DHT22;12870;52.274;9.754;2024-03-07T00:26:36;3.10;99.90
24772;DHT22;12870;52.274;9.754;2024-03-07T00:29:01;3.00;99.90
24772;DHT22;12870;52.274;9.754;2024-03-07T00:31:27;3.00;99.90
24772;DHT22;12870;52.274;9.754;2024-03-07T00:33:55;2.90;99.90
24772;DHT22;12870;52.274;9.754;2024-03-07T00:36:21;2.80;99.90
24772;DHT22;12870;52.274;9.754;2024-03-07T00:38:47;2.70;99.90
24772;DHT22;12870;52.274;9.754;2024-03-07T00:41:12;2.60;99.90
24772;DHT22;12870;52.274;9.754;2024-03-07T00:43:38;2.60;99.90
24772;DHT22;12870;52.274;9.754;2024-03-07T00:46:03;2.60;99.90
24772;DHT22;12870;52.274;9.754;2024-03-07T00:48:31;2.60;99.90
24772;DHT22;12870;52.274;9.754;2024-03-07T00:50:57;2.60;99.90
24772;DHT22;12870;52.274;9.754;2024-03-07T00:53:22;2.60;99.90
24772;DHT22;12870;52.274;9.754;2024-03-07T00:55:48;2.50;99.90
24772;DHT22;12870;52.274;9.754;2024-03-07T00:58:14;2.50;99.90
24772;DHT22;12870;52.274;9.754;2024-03-07T01:00:39;2.60;99.90
24772;DHT22;12870;52.274;9.754;2024-03-07T01:03:11;2.50;99.90
24772;DHT22;12870;52.274;9.754;2024-03-07T01:05:39;2.50;99.90
24772;DHT22;12870;52.274;9.754;2024-03-07T01:08:05;2.50;99.90
24772;DHT22;12870;52.274;9.754;2024-03-07T01:10:31;2.50;99.90
24772;DHT22;12870;52.274;9.754;2024-03-07T01:12:56;2.60;99.90
24772;DHT22;12870;52.274;9.754;2024-03-07T01:15:26;2.50;99.90
24772;DHT22;12870;52.274;9.754;2024-03-07T01:17:52;2.50;99.90
24772;DHT22;12870;52.274;9.754;2024-03-07T01:20:17;2.40;99.90
24772;DHT22;12870;52.274;9.754;2024-03-07T01:22:43;2.40;99.90
24772;DHT22;12870;52.274;9.754;2024-03-07T01:25:09;2.30;99.90
24772;DHT22;12870;52.274;9.754;2024-03-07T01:27:35;2.30;99.90
24772;DHT22;12870;52.274;9.754;2024-03-07T01:30:01;2.30;99.90
24772;DHT22;12870;52.274;9.754;2024-03-07T01:32:27;2.30;99.90
24772;DHT22;12870;52.274;9.754;2024-03-07T01:34:53;2.30;99.90
24772;DHT22;12870;52.274;9.754;2024-03-07T01:37:20;2.30;99.90
24772;DHT22;12870;52.274;9.754;2024-03-07T01:39:45;2.30;99.90
24772;DHT22;12870;52.274;9.754;2024-03-07T01:42:12;2.30;99.90
24772;DHT22;12870;52.274;9.754;2024-03-07T01:44:37;2.30;99.90
24772;DHT22;12870;52.274;9.754;2024-03-07T01:47:05;2.30;99.90
24772;DHT22;12870;52.274;9.754;2024-03-07T01:49:32;2.30;99.90
24772;DHT22;12870;52.274;9.754;2024-03-07T01:51:58;2.20;99.90
24772;DHT22;12870;52.274;9.754;2024-03-07T01:54:24;2.20;99.90
24772;DHT22;12870;52.274;9.754;2024-03-07T01:56:51;2.20;99.90
24772;DHT22;12870;52.274;9.754;2024-03-07T01:59:17;2.10;99.90
24772;DHT22;12870;52.274;9.754;2024-03-07T02:01:46;2.10;99.90
24772;DHT22;12870;52.274;9.754;2024-03-07T02:04:12;2.10;99.90
24772;DHT22;12870;52.274;9.754;2024-03-07T02:06:38;2.20;99.90
24772;DHT22;12870;52.274;9.754;2024-03-07T02:09:03;2.20;99.90
24772;DHT22;12870;52.274;9.754;2024-03-07T02:11:31;2.30;99.90
24772;DHT22;12870;52.274;9.754;2024-03-07T02:13:56;2.40;99.90
24772;DHT22;12870;52.274;9.754;2024-03-07T02:16:22;2.40;99.90
24772;DHT22;12870;52.274;9.754;2024-03-07T02:18:48;2.40;99.90
24772;DHT22;12870;52.274;9.754;2024-03-07T02:21:15;2.40;99.90
24772;DHT22;12870;52.274;9.754;2024-03-07T02:23:40;2.30;99.90
24772;DHT22;12870;52.274;9.754;2024-03-07T02:26:06;2.30;99.90
24772;DHT22;12870;52.274;9.754;2024-03-07T02:28:33;2.30;99.90
24772;DHT22;12870;52.274;9.754;2024-03-07T02:31:00;2.30;99.90
24772;DHT22;12870;52.274;9.754;2024-03-07T02:33:26;2.30;99.90
24772;DHT22;12870;52.274;9.754;2024-03-07T02:35:52;2.30;99.90
24772;DHT22;12870;52.274;9.754;2024-03-07T02:38:17;2.30;99.90
24772;DHT22;12870;52.274;9.754;2024-03-07T02:40:43;2.30;99.90
24772;DHT22;12870;52.274;9.754;2024-03-07T02:43:09;2.30;99.90
24772;DHT22;12870;52.274;9.754;2024-03-07T02:45:34;2.30;99.90
24772;DHT22;12870;52.274;9.754;2024-03-07T02:48:00;2.30;99.90
24772;DHT22;12870;52.274;9.754;2024-03-07T02:50:25;2.20;99.90
24772;DHT22;12870;52.274;9.754;2024-03-07T02:52:51;2.20;99.90
24772;DHT22;12870;52.274;9.754;2024-03-07T02:55:18;2.20;99.90
24772;DHT22;12870;52.274;9.754;2024-03-07T02:57:44;2.20;99.90
24772;DHT22;12870;52.274;9.754;2024-03-07T03:00:11;2.20;99.90
24772;DHT22;12870;52.274;9.754;2024-03-07T03:02:49;2.20;99.90
24772;DHT22;12870;52.274;9.754;2024-03-07T03:05:15;2.20;99.90
24772;DHT22;12870;52.274;9.754;2024-03-07T03:07:41;2.20;99.90
24772;DHT22;12870;52.274;9.754;2024-03-07T03:10:07;2.20;99.90
24772;DHT22;12870;52.274;9.754;2024-03-07T03:12:33;2.20;99.90
24772;DHT22;12870;52.274;9.754;2024-03-07T03:14:59;2.10;99.90
24772;DHT22;12870;52.274;9.754;2024-03-07T03:17:24;2.10;99.90
24772;DHT22;12870;52.274;9.754;2024-03-07T03:19:50;2.10;99.90
24772;DHT22;12870;52.274;9.754;2024-03-07T03:22:17;2.10;99.90
24772;DHT22;12870;52.274;9.754;2024-03-07T03:24:43;2.10;99.90
24772;DHT22;12870;52.274;9.754;2024-03-07T03:27:09;2.10;99.90
24772;DHT22;12870;52.274;9.754;2024-03-07T03:29:36;2.00;99.90
24772;DHT22;12870;52.274;9.754;2024-03-07T03:32:01;2.00;99.90
24772;DHT22;12870;52.274;9.754;2024-03-07T03:34:27;2.00;99.90
24772;DHT22;12870;52.274;9.754;2024-03-07T03:36:52;2.00;99.90
24772;DHT22;12870;52.274;9.754;2024-03-07T03:39:18;2.00;99.90
24772;DHT22;12870;52.274;9.754;2024-03-07T03:41:46;2.00;99.90
24772;DHT22;12870;52.274;9.754;2024-03-07T03:44:11;2.00;99.90
24772;DHT22;12870;52.274;9.754;2024-03-07T03:46:37;2.00;99.90
24772;DHT22;12870;52.274;9.754;2024-03-07T03:49:02;1.90;99.90
24772;DHT22;12870;52.274;9.754;2024-03-07T03:51:28;2.00;99.90
24772;DHT22;12870;52.274;9.754;2024-03-07T03:53:53;2.00;99.90
24772;DHT22;12870;52.274;9.754;2024-03-07T03:56:19;2.10;99.90
24772;DHT22;12870;52.274;9.754;2024-03-07T03:58:45;2.10;99.90
24772;DHT22;12870;52.274;9.754;2024-03-07T04:01:10;2.10;99.90
24772;DHT22;12870;52.274;9.754;2024-03-07T04:03:39;2.10;99.90
24772;DHT22;12870;52.274;9.754;2024-03-07T04:06:04;2.20;99.90
24772;DHT22;12870;52.274;9.754;2024-03-07T04:08:30;2.20;99.90
24772;DHT22;12870;52.274;9.754;2024-03-07T04:10:55;2.20;99.90
24772;DHT22;12870;52.274;9.754;2024-03-07T04:13:21;2.20;99.90
24772;DHT22;12870;52.274;9.754;2024-03-07T04:15:51;2.30;99.90
24772;DHT22;12870;52.274;9.754;2024-03-07T04:18:16;2.30;99.90
24772;DHT22;12870;52.274;9.754;2024-03-07T04:20:42;2.30;99.90
24772;DHT22;12870;52.274;9.754;2024-03-07T04:23:09;2.40;99.90
24772;DHT22;12870;52.274;9.754;2024-03-07T04:25:35;2.50;99.90
24772;DHT22;12870;52.274;9.754;2024-03-07T04:28:00;2.50;99.90
24772;DHT22;12870;52.274;9.754;2024-03-07T04:30:26;2.50;99.90
24772;DHT22;12870;52.274;9.754;2024-03-07T04:32:52;2.60;99.90
24772;DHT22;12870;52.274;9.754;2024-03-07T04:35:17;2.60;99.90
24772;DHT22;12870;52.274;9.754;2024-03-07T04:37:43;2.60;99.90
24772;DHT22;12870;52.274;9.754;2024-03-07T04:40:09;2.60;99.90
24772;DHT22;12870;52.274;9.754;2024-03-07T04:42:48;2.60;99.90
24772;DHT22;12870;52.274;9.754;2024-03-07T04:45:15;2.70;99.90
24772;DHT22;12870;52.274;9.754;2024-03-07T04:47:41;2.70;99.90
24772;DHT22;12870;52.274;9.754;2024-03-07T04:50:08;2.70;99.90
24772;DHT22;12870;52.274;9.754;2024-03-07T04:52:36;2.70;99.90
24772;DHT22;12870;52.274;9.754;2024-03-07T04:55:03;2.80;99.90
24772;DHT22;12870;52.274;9.754;2024-03-07T04:57:29;2.80;99.90
24772;DHT22;12870;52.274;9.754;2024-03-07T04:59:55;2.80;99.90
24772;DHT22;12870;52.274;9.754;2024-03-07T05:02:20;2.80;99.90
24772;DHT22;12870;52.274;9.754;2024-03-07T05:04:46;2.90;99.90
24772;DHT22;12870;52.274;9.754;2024-03-07T05:07:15;2.90;99.90
24772;DHT22;12870;52.274;9.754;2024-03-07T05:09:40;2.90;99.90
24772;DHT22;12870;52.274;9.754;2024-03-07T05:12:06;2.90;99.90
24772;DHT22;12870;52.274;9.754;2024-03-07T05:14:31;3.00;99.90
24772;DHT22;12870;52.274;9.754;2024-03-07T05:16:57;3.00;99.90
24772;DHT22;12870;52.274;9.754;2024-03-07T05:19:34;3.00;99.90
24772;DHT22;12870;52.274;9.754;2024-03-07T05:22:00;3.00;99.90
24772;DHT22;12870;52.274;9.754;2024-03-07T05:24:26;3.10;99.90
24772;DHT22;12870;52.274;9.754;2024-03-07T05:26:51;3.10;99.90
24772;DHT22;12870;52.274;9.754;2024-03-07T05:29:20;3.20;99.90
24772;DHT22;12870;52.274;9.754;2024-03-07T05:31:45;3.20;99.90
24772;DHT22;12870;52.274;9.754;2024-03-07T05:34:13;3.20;99.90
24772;DHT22;12870;52.274;9.754;2024-03-07T05:36:39;3.30;99.90
24772;DHT22;12870;52.274;9.754;2024-03-07T05:39:15;3.20;99.90
24772;DHT22;12870;52.274;9.754;2024-03-07T05:41:42;3.20;99.90
24772;DHT22;12870;52.274;9.754;2024-03-07T05:44:10;3.20;99.90
24772;DHT22;12870;52.274;9.754;2024-03-07T05:46:37;3.20;99.90
24772;DHT22;12870;52.274;9.754;2024-03-07T05:49:07;3.20;99.90
24772;DHT22;12870;52.274;9.754;2024-03-07T05:51:32;3.20;99.90
24772;DHT22;12870;52.274;9.754;2024-03-07T05:53:58;3.20;99.90
24772;DHT22;12870;52.274;9.754;2024-03-07T05:56:23;3.20;99.90
24772;DHT22;12870;52.274;9.754;2024-03-07T05:58:49;3.20;99.90
24772;DHT22;12870;52.274;9.754;2024-03-07T06:01:17;3.20;99.90
24772;DHT22;12870;52.274;9.754;2024-03-07T06:03:43;3.20;99.90
24772;DHT22;12870;52.274;9.754;2024-03-07T06:06:09;3.30;99.90
24772;DHT22;12870;52.274;9.754;2024-03-07T06:08:37;3.30;99.90
24772;DHT22;12870;52.274;9.754;2024-03-07T06:11:03;3.30;99.90
24772;DHT22;12870;52.274;9.754;2024-03-07T06:13:28;3.30;99.90
24772;DHT22;12870;52.274;9.754;2024-03-07T06:15:54;3.20;99.90
24772;DHT22;12870;52.274;9.754;2024-03-07T06:18:20;3.20;99.90
24772;DHT22;12870;52.274;9.754;2024-03-07T06:20:45;3.30;99.90
24772;DHT22;12870;52.274;9.754;2024-03-07T06:23:11;3.30;99.90
24772;DHT22;12870;52.274;9.754;2024-03-07T06:25:38;3.30;99.90
24772;DHT22;12870;52.274;9.754;2024-03-07T06:28:13;3.30;99.90
24772;DHT22;12870;52.274;9.754;2024-03-07T06:30:40;3.40;99.90
24772;DHT22;12870;52.274;9.754;2024-03-07T06:33:07;3.30;99.90
24772;DHT22;12870;52.274;9.754;2024-03-07T06:35:33;3.30;99.90
24772;DHT22;12870;52.274;9.754;2024-03-07T06:38:02;3.30;99.90
24772;DHT22;12870;52.274;9.754;2024-03-07T06:40:28;3.20;99.90
24772;DHT22;12870;52.274;9.754;2024-03-07T06:42:55;3.20;99.90
24772;DHT22;12870;52.274;9.754;2024-03-07T06:45:20;3.20;99.90
24772;DHT22;12870;52.274;9.754;2024-03-07T06:47:46;3.20;99.90
24772;DHT22;12870;52.274;9.754;2024-03-07T06:50:12;3.10;99.90
24772;DHT22;12870;52.274;9.754;2024-03-07T06:52:48;3.20;99.90
24772;DHT22;12870;52.274;9.754;2024-03-07T06:55:17;3.20;99.90
24772;DHT22;12870;52.274;9.754;2024-03-07T06:57:47;3.30;99.90
24772;DHT22;12870;52.274;9.754;2024-03-07T07:00:14;3.30;99.90
24772;DHT22;12870;52.274;9.754;2024-03-07T07:02:44;3.40;99.90
24772;DHT22;12870;52.274;9.754;2024-03-07T07:05:10;3.40;99.90
24772;DHT22;12870;52.274;9.754;2024-03-07T07:07:46;3.50;99.90
24772;DHT22;12870;52.274;9.754;2024-03-07T07:10:12;3.50;99.90
24772;DHT22;12870;52.274;9.754;2024-03-07T07:12:48;3.60;99.90
24772;DHT22;12870;52.274;9.754;2024-03-07T07:15:16;3.60;99.90
24772;DHT22;12870;52.274;9.754;2024-03-07T07:17:43;3.70;99.90
24772;DHT22;12870;52.274;9.754;2024-03-07T07:20:11;3.60;99.90
24772;DHT22;12870;52.274;9.754;2024-03-07T07:22:39;3.60;99.90
24772;DHT22;12870;52.274;9.754;2024-03-07T07:25:06;3.60;99.90
24772;DHT22;12870;52.274;9.754;2024-03-07T07:27:39;3.60;99.90
24772;DHT22;12870;52.274;9.754;2024-03-07T07:30:06;3.70;99.90
24772;DHT22;12870;52.274;9.754;2024-03-07T07:32:33;3.60;99.90
24772;DHT22;12870;52.274;9.754;2024-03-07T07:34:58;3.70;99.90
24772;DHT22;12870;52.274;9.754;2024-03-07T07:37:24;3.70;99.90
24772;DHT22;12870;52.274;9.754;2024-03-07T07:39:50;3.80;99.90
24772;DHT22;12870;52.274;9.754;2024-03-07T07:42:16;3.90;99.90
24772;DHT22;12870;52.274;9.754;2024-03-07T07:44:42;4.00;99.90
24772;DHT22;12870;52.274;9.754;2024-03-07T07:47:09;4.10;99.90
24772;DHT22;12870;52.274;9.754;2024-03-07T07:49:37;4.20;99.90
24772;DHT22;12870;52.274;9.754;2024-03-07T07:52:04;4.30;99.90
24772;DHT22;12870;52.274;9.754;2024-03-07T07:54:29;4.20;99.90
24772;DHT22;12870;52.274;9.754;2024-03-07T07:56:55;4.20;99.90
24772;DHT22;12870;52.274;9.754;2024-03-07T07:59:21;4.20;99.90
24772;DHT22;12870;52.274;9.754;2024-03-07T08:01:46;4.30;99.90
24772;DHT22;12870;52.274;9.754;2024-03-07T08:04:12;4.40;99.90
24772;DHT22;12870;52.274;9.754;2024-03-07T08:06:37;4.40;99.90
24772;DHT22;12870;52.274;9.754;2024-03-07T08:09:03;4.50;99.90
24772;DHT22;12870;52.274;9.754;2024-03-07T08:11:32;4.50;99.90
24772;DHT22;12870;52.274;9.754;2024-03-07T08:13:58;4.50;99.90
24772;DHT22;12870;52.274;9.754;2024-03-07T08:16:23;4.50;99.90
24772;DHT22;12870;52.274;9.754;2024-03-07T08:18:49;4.60;99.90
24772;DHT22;12870;52.274;9.754;2024-03-07T08:21:15;4.70;99.90
24772;DHT22;12870;52.274;9.754;2024-03-07T08:23:40;4.70;99.90
24772;DHT22;12870;52.274;9.754;2024-03-07T08:26:06;4.80;99.90
24772;DHT22;12870;52.274;9.754;2024-03-07T08:28:32;4.90;99.90
24772;DHT22;12870;52.274;9.754;2024-03-07T08:30:57;4.90;99.90
24772;DHT22;12870;52.274;9.754;2024-03-07T08:33:24;4.90;99.90
24772;DHT22;12870;52.274;9.754;2024-03-07T08:35:50;4.80;99.90
24772;DHT22;12870;52.274;9.754;2024-03-07T08:38:18;4.90;99.90
24772;DHT22;12870;52.274;9.754;2024-03-07T08:40:44;5.00;99.90
24772;DHT22;12870;52.274;9.754;2024-03-07T08:43:09;5.00;99.90
24772;DHT22;12870;52.274;9.754;2024-03-07T08:45:35;5.10;99.90
24772;DHT22;12870;52.274;9.754;2024-03-07T08:48:01;5.20;99.90
24772;DHT22;12870;52.274;9.754;2024-03-07T08:50:29;5.20;99.90
24772;DHT22;12870;52.274;9.754;2024-03-07T08:52:56;5.20;99.90
24772;DHT22;12870;52.274;9.754;2024-03-07T08:55:26;5.30;99.90
24772;DHT22;12870;52.274;9.754;2024-03-07T08:57:51;5.40;99.90
24772;DHT22;12870;52.274;9.754;2024-03-07T09:00:18;5.50;99.90
24772;DHT22;12870;52.274;9.754;2024-03-07T09:02:57;5.50;99.90
24772;DHT22;12870;52.274;9.754;2024-03-07T09:05:23;5.60;99.90
24772;DHT22;12870;52.274;9.754;2024-03-07T09:07:50;5.80;99.90
24772;DHT22;12870;52.274;9.754;2024-03-07T09:10:16;5.90;99.90
24772;DHT22;12870;52.274;9.754;2024-03-07T09:12:42;6.00;99.90
24772;DHT22;12870;52.274;9.754;2024-03-07T09:15:09;6.20;99.90
24772;DHT22;12870;52.274;9.754;2024-03-07T09:17:38;6.30;99.90
24772;DHT22;12870;52.274;9.754;2024-03-07T09:20:07;6.40;99.90
24772;DHT22;12870;52.274;9.754;2024-03-07T09:22:34;6.50;99.90
24772;DHT22;12870;52.274;9.754;2024-03-07T09:25:00;6.60;99.90
24772;DHT22;12870;52.274;9.754;2024-03-07T09:27:26;6.70;99.90
24772;DHT22;12870;52.274;9.754;2024-03-07T09:29:51;6.70;99.90
24772;DHT22;12870;52.274;9.754;2024-03-07T09:32:18;6.80;99.90
24772;DHT22;12870;52.274;9.754;2024-03-07T09:34:43;6.90;99.90
24772;DHT22;12870;52.274;9.754;2024-03-07T09:37:09;6.90;99.90
24772;DHT22;12870;52.274;9.754;2024-03-07T09:39:34;6.90;99.90
24772;DHT22;12870;52.274;9.754;2024-03-07T09:42:07;6.90;99.90
24772;DHT22;12870;52.274;9.754;2024-03-07T09:44:36;7.00;99.90
24772;DHT22;12870;52.274;9.754;2024-03-07T09:47:05;7.10;99.90
24772;DHT22;12870;52.274;9.754;2024-03-07T09:49:30;7.10;99.90
24772;DHT22;12870;52.274;9.754;2024-03-07T09:51:58;7.20;99.90
24772;DHT22;12870;52.274;9.754;2024-03-07T09:54:26;7.20;99.90
24772;DHT22;12870;52.274;9.754;2024-03-07T09:56:55;7.20;99.90
24772;DHT22;12870;52.274;9.754;2024-03-07T09:59:24;7.20;99.90
24772;DHT22;12870;52.274;9.754;2024-03-07T10:01:54;7.20;99.90
24772;DHT22;12870;52.274;9.754;2024-03-07T10:04:33;7.20;99.90
24772;DHT22;12870;52.274;9.754;2024-03-07T10:07:02;7.30;99.90
24772;DHT22;12870;52.274;9.754;2024-03-07T10:09:29;7.30;99.90
24772;DHT22;12870;52.274;9.754;2024-03-07T10:11:59;7.30;99.90
24772;DHT22;12870;52.274;9.754;2024-03-07T10:14:25;7.40;99.90
24772;DHT22;12870;52.274;9.754;2024-03-07T10:16:53;7.30;99.90
24772;DHT22;12870;52.274;9.754;2024-03-07T10:19:19;7.50;99.90
24772;DHT22;12870;52.274;9.754;2024-03-07T10:21:44;7.50;99.90
24772;DHT22;12870;52.274;9.754;2024-03-07T10:24:10;7.50;99.90
24772;DHT22;12870;52.274;9.754;2024-03-07T10:26:39;7.60;99.90
24772;DHT22;12870;52.274;9.754;2024-03-07T10:29:06;7.70;99.90
24772;DHT22;12870;52.274;9.754;2024-03-07T10:31:34;7.80;99.90
24772;DHT22;12870;52.274;9.754;2024-03-07T10:34:02;7.80;99.90
24772;DHT22;12870;52.274;9.754;2024-03-07T10:36:32;8.00;99.90
24772;DHT22;12870;52.274;9.754;2024-03-07T10:38:58;8.00;99.90
24772;DHT22;12870;52.274;9.754;2024-03-07T10:41:47;8.20;99.90
24772;DHT22;12870;52.274;9.754;2024-03-07T10:44:25;8.40;99.90
24772;DHT22;12870;52.274;9.754;2024-03-07T10:46:58;8.60;99.90
24772;DHT22;12870;52.274;9.754;2024-03-07T10:49:33;8.60;99.90
24772;DHT22;12870;52.274;9.754;2024-03-07T10:52:20;8.60;99.90
24772;DHT22;12870;52.274;9.754;2024-03-07T10:55:38;8.60;99.90
24772;DHT22;12870;52.274;9.754;2024-03-07T10:57:52;8.80;99.90
24772;DHT22;12870;52.274;9.754;2024-03-07T11:00:22;9.80;99.90
24772;DHT22;12870;52.274;9.754;2024-03-07T11:03:01;10.50;99.90
24772;DHT22;12870;52.274;9.754;2024-03-07T11:05:32;10.70;99.90
24772;DHT22;12870;52.274;9.754;2024-03-07T11:08:02;10.60;99.90
24772;DHT22;12870;52.274;9.754;2024-03-07T11:10:37;10.30;99.90
24772;DHT22;12870;52.274;9.754;2024-03-07T11:13:08;10.30;99.90
24772;DHT22;12870;52.274;9.754;2024-03-07T11:15:36;10.10;99.90
24772;DHT22;12870;52.274;9.754;2024-03-07T11:18:03;10.40;99.90
24772;DHT22;12870;52.274;9.754;2024-03-07T11:20:39;10.60;99.90
24772;DHT22;12870;52.274;9.754;2024-03-07T11:23:31;11.00;99.90
24772;DHT22;12870;52.274;9.754;2024-03-07T11:26:05;11.80;99.90
24772;DHT22;12870;52.274;9.754;2024-03-07T11:28:35;13.10;99.90
24772;DHT22;12870;52.274;9.754;2024-03-07T11:31:27;13.80;99.90
24772;DHT22;12870;52.274;9.754;2024-03-07T11:34:12;13.30;99.90
24772;DHT22;12870;52.274;9.754;2024-03-07T11:36:46;12.80;99.90
24772;DHT22;12870;52.274;9.754;2024-03-07T11:42:33;11.70;99.90
24772;DHT22;12870;52.274;9.754;2024-03-07T11:45:02;11.30;99.90
24772;DHT22;12870;52.274;9.754;2024-03-07T11:47:39;11.30;99.90
24772;DHT22;12870;52.274;9.754;2024-03-07T11:50:05;11.10;99.90
24772;DHT22;12870;52.274;9.754;2024-03-07T11:52:36;11.00;99.90
24772;DHT22;12870;52.274;9.754;2024-03-07T11:55:04;11.50;99.90
24772;DHT22;12870;52.274;9.754;2024-03-07T11:57:30;11.70;99.90
24772;DHT22;12870;52.274;9.754;2024-03-07T11:59:59;11.80;99.90
24772;DHT22;12870;52.274;9.754;2024-03-07T12:02:33;11.60;99.90
24772;DHT22;12870;52.274;9.754;2024-03-07T12:04:59;11.50;99.90
24772;DHT22;12870;52.274;9.754;2024-03-07T12:07:26;11.20;99.90
24772;DHT22;12870;52.274;9.754;2024-03-07T12:09:52;11.00;99.90
24772;DHT22;12870;52.274;9.754;2024-03-07T12:12:20;11.00;99.90
24772;DHT22;12870;52.274;9.754;2024-03-07T12:14:50;10.80;99.90
24772;DHT22;12870;52.274;9.754;2024-03-07T12:17:19;10.80;99.90
24772;DHT22;12870;52.274;9.754;2024-03-07T12:19:46;11.10;99.90
24772;DHT22;12870;52.274;9.754;2024-03-07T12:22:12;11.50;99.90
24772;DHT22;12870;52.274;9.754;2024-03-07T12:24:41;11.80;99.90
24772;DHT22;12870;52.274;9.754;2024-03-07T12:27:08;11.80;99.90
24772;DHT22;12870;52.274;9.754;2024-03-07T12:29:36;11.70;99.90
24772;DHT22;12870;52.274;9.754;2024-03-07T12:32:07;11.50;99.90
24772;DHT22;12870;52.274;9.754;2024-03-07T12:34:43;11.20;99.90
24772;DHT22;12870;52.274;9.754;2024-03-07T12:37:11;11.00;99.90
24772;DHT22;12870;52.274;9.754;2024-03-07T12:39:44;11.00;99.90
24772;DHT22;12870;52.274;9.754;2024-03-07T12:42:15;10.90;99.90
24772;DHT22;12870;52.274;9.754;2024-03-07T12:44:43;11.20;99.90
24772;DHT22;12870;52.274;9.754;2024-03-07T12:47:17;12.10;99.90
24772;DHT22;12870;52.274;9.754;2024-03-07T12:49:43;13.30;99.90
24772;DHT22;12870;52.274;9.754;2024-03-07T12:52:11;14.60;99.90
24772;DHT22;12870;52.274;9.754;2024-03-07T12:54:41;15.60;99.90
24772;DHT22;12870;52.274;9.754;2024-03-07T12:57:10;16.10;99.90
24772;DHT22;12870;52.274;9.754;2024-03-07T12:59:37;15.50;99.90
24772;DHT22;12870;52.274;9.754;2024-03-07T13:02:04;14.50;99.90
24772;DHT22;12870;52.274;9.754;2024-03-07T13:04:34;13.30;99.90
24772;DHT22;12870;52.274;9.754;2024-03-07T13:07:03;12.50;99.90
24772;DHT22;12870;52.274;9.754;2024-03-07T13:09:30;11.90;99.90
24772;DHT22;12870;52.274;9.754;2024-03-07T13:11:57;11.60;99.90
24772;DHT22;12870;52.274;9.754;2024-03-07T13:14:22;11.30;99.90
24772;DHT22;12870;52.274;9.754;2024-03-07T13:16:48;11.00;99.90
24772;DHT22;12870;52.274;9.754;2024-03-07T13:19:15;10.90;99.90
24772;DHT22;12870;52.274;9.754;2024-03-07T13:21:46;10.70;99.90
24772;DHT22;12870;52.274;9.754;2024-03-07T13:24:12;10.70;99.90
24772;DHT22;12870;52.274;9.754;2024-03-07T13:26:37;10.80;99.90
24772;DHT22;12870;52.274;9.754;2024-03-07T13:29:03;10.90;99.90
24772;DHT22;12870;52.274;9.754;2024-03-07T13:31:30;11.60;99.90
24772;DHT22;12870;52.274;9.754;2024-03-07T13:33:56;12.60;99.90
24772;DHT22;12870;52.274;9.754;2024-03-07T13:36:21;12.90;99.90
24772;DHT22;12870;52.274;9.754;2024-03-07T13:38:53;12.90;99.90
24772;DHT22;12870;52.274;9.754;2024-03-07T13:41:21;12.80;99.90
24772;DHT22;12870;52.274;9.754;2024-03-07T13:43:48;12.90;99.90
24772;DHT22;12870;52.274;9.754;2024-03-07T13:46:14;13.00;99.90
24772;DHT22;12870;52.274;9.754;2024-03-07T13:48:43;12.90;99.90
24772;DHT22;12870;52.274;9.754;2024-03-07T13:51:09;13.50;99.90
24772;DHT22;12870;52.274;9.754;2024-03-07T13:53:35;14.10;99.90
24772;DHT22;12870;52.274;9.754;2024-03-07T13:58:54;16.10;99.90
24772;DHT22;12870;52.274;9.754;2024-03-07T14:16:03;15.60;93.50
24772;DHT22;12870;52.274;9.754;2024-03-07T14:27:38;14.10;94.60
24772;DHT22;12870;52.274;9.754;2024-03-07T14:30:22;13.20;96.10
24772;DHT22;12870;52.274;9.754;2024-03-07T14:32:55;12.40;96.80
24772;DHT22;12870;52.274;9.754;2024-03-07T14:35:33;11.90;98.20
24772;DHT22;12870;52.274;9.754;2024-03-07T14:38:28;12.40;99.90
24772;DHT22;12870;52.274;9.754;2024-03-07T14:40:55;13.30;98.70
24772;DHT22;12870;52.274;9.754;2024-03-07T14:43:22;14.40;96.80
24772;DHT22;12870;52.274;9.754;2024-03-07T14:45:47;15.60;95.80
24772;DHT22;12870;52.274;9.754;2024-03-07T14:48:17;16.60;94.30
24772;DHT22;12870;52.274;9.754;2024-03-07T14:50:45;16.60;92.60
24772;DHT22;12870;52.274;9.754;2024-03-07T14:53:12;15.70;91.10
24772;DHT22;12870;52.274;9.754;2024-03-07T14:55:39;14.50;91.50
24772;DHT22;12870;52.274;9.754;2024-03-07T14:58:06;13.90;92.40
24772;DHT22;12870;52.274;9.754;2024-03-07T15:00:36;13.30;94.10
24772;DHT22;12870;52.274;9.754;2024-03-07T15:03:11;12.90;94.40
24772;DHT22;12870;52.274;9.754;2024-03-07T15:05:41;12.40;95.60
24772;DHT22;12870;52.274;9.754;2024-03-07T15:08:07;12.10;97.20
24772;DHT22;12870;52.274;9.754;2024-03-07T15:10:36;12.20;97.70
24772;DHT22;12870;52.274;9.754;2024-03-07T15:13:02;12.50;97.70
24772;DHT22;12870;52.274;9.754;2024-03-07T15:15:30;12.50;96.90
24772;DHT22;12870;52.274;9.754;2024-03-07T15:17:57;12.20;97.60
24772;DHT22;12870;52.274;9.754;2024-03-07T15:20:23;11.90;97.80
24772;DHT22;12870;52.274;9.754;2024-03-07T15:22:51;11.80;98.30
24772;DHT22;12870;52.274;9.754;2024-03-07T15:25:18;11.80;97.90
24772;DHT22;12870;52.274;9.754;2024-03-07T15:27:44;11.80;98.20
24772;DHT22;12870;52.274;9.754;2024-03-07T15:30:17;11.50;98.20
24772;DHT22;12870;52.274;9.754;2024-03-07T15:32:44;11.50;98.80
24772;DHT22;12870;52.274;9.754;2024-03-07T15:35:11;11.40;99.40
24772;DHT22;12870;52.274;9.754;2024-03-07T15:37:39;11.40;99.80
24772;DHT22;12870;52.274;9.754;2024-03-07T15:40:09;11.30;99.60
24772;DHT22;12870;52.274;9.754;2024-03-07T15:42:42;11.10;99.90
24772;DHT22;12870;52.274;9.754;2024-03-07T15:45:08;11.00;99.90
24772;DHT22;12870;52.274;9.754;2024-03-07T15:47:49;10.90;99.90
24772;DHT22;12870;52.274;9.754;2024-03-07T15:50:15;10.70;99.90
24772;DHT22;12870;52.274;9.754;2024-03-07T15:52:44;10.60;99.90
24772;DHT22;12870;52.274;9.754;2024-03-07T15:55:10;10.60;99.90
24772;DHT22;12870;52.274;9.754;2024-03-07T15:57:50;10.60;99.90
24772;DHT22;12870;52.274;9.754;2024-03-07T16:00:18;10.70;99.90
24772;DHT22;12870;52.274;9.754;2024-03-07T16:02:52;10.80;99.90
24772;DHT22;12870;52.274;9.754;2024-03-07T16:05:19;10.80;99.90
24772;DHT22;12870;52.274;9.754;2024-03-07T16:07:45;10.70;99.90
24772;DHT22;12870;52.274;9.754;2024-03-07T16:10:11;10.60;99.90
24772;DHT22;12870;52.274;9.754;2024-03-07T16:12:38;10.30;99.90
24772;DHT22;12870;52.274;9.754;2024-03-07T16:15:04;10.20;99.90
24772;DHT22;12870;52.274;9.754;2024-03-07T16:17:29;10.00;99.90